Reed, Oklahoma
Current Conditions -  °F | °C
As of 3:35 AM on Thursday 23 Oct 2014 (Local Time) from KAXS Reporting Station
Haze Haze  
Wind Chill: 60°   Ceiling: 5000
Heat Index: 60°   Visibility: 2.5mi
Dew Point: 57°   Wind: 0mph
Humidity: 91%   Direction: NA
Pressure: 30.12"   Gusts: NA
Location:  34.8485°N, 99.5641°W
Report Text: KAXS 230835Z AUTO 00000KT 2 1/2SM BR BKN050 16/14 A3012 RMK AO2 T01550141
Loading
Personal Weather Stations






























Interactive Weather Map
Tropical Storm Tracking
New forecast layout! Learn more

10-Day Weather Forecast

Advertisements
Track Severe Weather on mobile